Latest Weather Observations for Warburton

IDW60801

Issued at 3:05 pm WST Wednesday 16 April 2014 (issued every 30 minutes, with the page automatically refreshed every 10 minutes)

About weather observations | Map of weather stations | Latest weather observations for WA | Other Formats
Station Details ID: 013011 Name: WARBURTON AIRFIELD Lat: -26.13 Lon: 126.58 Height: 459.0 m
Data from the previous 72 hours. | See also: Recent months at Warburton
Date/Time
WST
Temp
°C
App
Temp
°C
Dew
Point
Rel
Hum
%
Delta-T
°C
Wind Press
QNH
hPa
Press
MSL
hPa
Rain
since 9 am
mm
Dir
 
Spd
km/h
Gust
km/h
Spd
kts
Gust
kts
16/03:00pm 29.2 24.4 2.5 18 13.5 SE 17 24 9 13 1018.4 1016.3 0.0
16/02:30pm 29.1 24.8 0.7 16 13.9 ESE 13 20 7 11 1018.6 - 0.0
16/02:00pm 29.1 24.9 1.6 17 13.7 SSE 13 22 7 12 1018.7 - 0.0
16/01:30pm 29.1 24.9 1.6 17 13.7 SE 13 20 7 11 1019.0 - 0.0
16/01:00pm 28.9 24.8 2.2 18 13.4 ESE 13 20 7 11 1019.3 - 0.0
16/12:30pm 28.5 25.4 3.4 20 12.9 ESE 9 19 5 10 1019.7 - 0.0
16/12:00pm 27.4 24.8 3.2 21 12.2 SSE 6 11 3 6 1020.1 1018.0 0.0
16/11:30am 27.5 24.6 4.5 23 11.9 ESE 9 20 5 11 1020.7 - 0.0
16/11:00am 26.8 23.8 4.0 23 11.7 NNE 9 15 5 8 1021.3 - 0.0
16/10:30am 26.3 23.4 4.7 25 11.2 ENE 9 19 5 10 1021.8 - 0.0
16/10:00am 25.5 22.2 6.2 29 10.2 E 13 20 7 11 1022.1 - 0.0
16/09:30am 25.4 21.4 6.6 30 10.0 ENE 17 22 9 12 1022.3 - 0.0
16/09:00am 24.5 20.5 6.7 32 9.4 ENE 17 22 9 12 1022.6 1020.5 0.0
16/08:30am 24.0 20.2 5.8 31 9.5 ENE 15 20 8 11 1022.6 - 0.0
16/08:00am 22.7 18.9 6.0 34 8.6 E 15 20 8 11 1022.6 - 0.0
16/07:30am 20.5 18.1 6.8 41 7.1 ESE 9 13 5 7 1022.3 - 0.0
16/07:00am 18.3 15.9 7.1 48 5.8 ESE 9 13 5 7 1022.1 - 0.0
16/06:30am 16.0 14.0 7.2 56 4.5 SE 7 9 4 5 1021.8 - 0.0
16/06:00am 13.8 11.8 7.1 64 3.3 ESE 7 9 4 5 1021.5 1019.3 0.0
16/05:30am 13.9 11.9 7.0 63 3.4 ESE 7 11 4 6 1021.3 - 0.0
16/05:00am 14.3 12.2 6.6 60 3.8 SE 7 9 4 5 1021.2 - 0.0
16/04:30am 14.6 12.5 6.7 59 3.9 SE 7 11 4 6 1021.1 - 0.0
16/04:00am 14.9 13.0 6.7 58 4.1 SE 6 9 3 5 1021.0 - 0.0
16/03:30am 15.5 12.2 6.5 55 4.5 ESE 13 15 7 8 1020.9 - 0.0
16/03:00am 15.7 12.5 6.7 55 4.5 SE 13 15 7 8 1020.7 1018.6 0.0
16/02:30am 15.9 13.0 6.3 53 4.8 ESE 11 13 6 7 1020.6 - 0.0
16/02:00am 16.0 13.1 6.7 54 4.7 SE 11 13 6 7 1020.7 - 0.0
16/01:30am 16.6 13.7 6.4 51 5.1 ESE 11 13 6 7 1020.9 - 0.0
16/01:00am 16.8 13.9 6.6 51 5.1 ESE 11 13 6 7 1021.2 - 0.0
16/12:30am 17.7 14.4 6.6 48 5.6 ESE 13 17 7 9 1021.5 - 0.0
16/12:00am 18.1 14.5 6.6 47 5.8 ESE 15 19 8 10 1021.6 1019.4 0.0
 
Date/Time
WST
Temp
°C
App
Temp
°C
Dew
Point
Rel
Hum
%
Delta-T
°C
Wind Press
QNH
hPa
Press
MSL
hPa
Rain
since 9 am
mm
Dir
 
Spd
km/h
Gust
km/h
Spd
kts
Gust
kts
15/11:30pm 17.9 15.1 7.0 49 5.6 SE 11 15 6 8 1021.6 - 0.0
15/11:00pm 18.5 15.2 6.4 45 6.1 SE 13 15 7 8 1021.6 - 0.0
15/10:30pm 19.3 15.6 6.1 42 6.7 ESE 15 20 8 11 1021.6 - 0.0
15/10:00pm 19.0 16.1 6.5 44 6.4 ESE 11 15 6 8 1021.7 - 0.0
15/09:30pm 18.9 16.1 7.0 46 6.1 ESE 11 13 6 7 1021.8 - 0.0
15/09:00pm 19.6 16.8 7.0 44 6.5 SSE 11 13 6 7 1021.8 1019.6 0.0
15/08:30pm 19.9 17.1 7.0 43 6.7 S 11 15 6 8 1021.8 - 0.0
15/08:00pm 20.3 17.5 7.0 42 6.9 ESE 11 11 6 6 1021.3 - 0.0
15/07:30pm 20.6 18.1 6.5 40 7.3 ESE 9 11 5 6 1021.1 - 0.0
15/07:00pm 21.5 19.1 5.4 35 8.2 SE 7 9 4 5 1020.9 - 0.0
15/06:30pm 22.8 20.0 5.3 32 9.0 SE 9 11 5 6 1020.5 - 0.0
15/06:00pm 23.8 21.0 5.2 30 9.5 SE 9 13 5 7 1020.1 1018.0 0.0
15/05:30pm 25.1 21.8 4.3 26 10.6 SSE 11 15 6 8 1019.7 - 0.0
15/05:00pm 26.3 22.2 4.1 24 11.4 SSE 15 20 8 11 1019.4 - 0.0
15/04:30pm 27.1 23.6 3.6 22 12.0 SE 11 20 6 11 1019.2 - 0.0
15/04:00pm 27.5 23.6 3.2 21 12.3 SSE 13 20 7 11 1018.9 - 0.0
15/03:30pm 27.5 24.6 4.5 23 11.9 SE 9 17 5 9 1018.9 - 0.0
15/03:00pm 27.5 23.4 4.5 23 11.9 SSE 15 22 8 12 1019.3 1017.1 0.0
15/02:30pm 27.6 24.0 5.2 24 11.8 S 13 22 7 12 1019.4 - 0.0
15/02:00pm 27.2 23.8 6.0 26 11.3 SE 13 20 7 11 1019.5 - 0.0
15/01:30pm 27.2 23.6 4.9 24 11.6 SE 13 20 7 11 1019.8 - 0.0
15/01:00pm 26.0 22.3 4.5 25 11.1 ESE 13 19 7 10 1020.2 - 0.0
15/12:30pm 26.1 22.9 5.1 26 10.9 SE 11 17 6 9 1020.6 - 0.0
15/12:00pm 25.7 22.8 6.3 29 10.3 SE 11 19 6 10 1021.1 1019.0 0.0
15/11:30am 24.7 22.8 6.9 32 9.5 S 6 13 3 7 1021.8 - 0.0
15/11:00am 24.8 22.5 7.4 33 9.4 ENE 9 15 5 8 1022.2 - 0.0
15/10:30am 23.5 21.2 7.6 36 8.5 ESE 9 17 5 9 1022.7 - 0.0
15/10:00am 23.0 20.8 7.9 38 8.1 E 9 20 5 11 1022.9 - 0.0
15/09:30am 22.5 19.7 8.6 41 7.5 E 13 20 7 11 1023.2 - 0.0
15/09:00am 20.8 17.5 8.1 44 6.7 E 15 20 8 11 1023.4 1021.3 0.0
15/08:30am 19.9 16.4 8.6 48 6.0 E 17 20 9 11 1023.5 - 0.0
15/08:00am 18.7 15.1 8.4 51 5.4 ESE 17 20 9 11 1023.5 - 0.0
15/07:30am 17.4 14.2 8.5 56 4.7 ESE 15 24 8 13 1023.2 - 0.0
15/07:00am 15.9 12.7 8.6 62 3.8 ESE 15 19 8 10 1022.9 - 0.0
15/06:30am 14.6 11.5 8.8 68 3.0 ESE 15 19 8 10 1022.6 - 0.0
15/06:00am 13.5 11.1 8.6 72 2.5 SE 11 15 6 8 1022.5 1020.4 0.0
15/05:30am 13.7 11.3 8.5 71 2.7 ESE 11 15 6 8 1022.3 - 0.0
15/05:00am 13.9 11.4 8.3 69 2.9 ESE 11 15 6 8 1022.0 - 0.0
15/04:30am 14.3 11.4 8.3 67 3.1 ESE 13 19 7 10 1021.8 - 0.0
15/04:00am 14.8 11.6 8.3 65 3.3 ESE 15 22 8 12 1021.9 - 0.0
15/03:30am 15.3 11.7 8.3 63 3.6 SE 17 20 9 11 1022.2 - 0.0
15/03:00am 15.5 12.3 8.3 62 3.7 SE 15 19 8 10 1022.1 1020.0 0.0
15/02:30am 15.9 12.6 8.2 60 4.0 SE 15 20 8 11 1022.0 - 0.0
15/02:00am 16.4 12.7 8.1 58 4.3 SE 17 22 9 12 1021.9 - 0.0
15/01:30am 16.7 13.0 7.9 56 4.6 ESE 17 24 9 13 1022.0 - 0.0
15/01:00am 17.1 13.4 8.0 55 4.7 SE 17 24 9 13 1022.1 - 0.0
15/12:30am 17.5 13.5 8.1 54 4.9 SE 19 26 10 14 1022.2 - 0.0
15/12:00am 17.9 13.7 8.2 53 5.1 ESE 20 26 11 14 1022.2 1020.1 0.0
 
Date/Time
WST
Temp
°C
App
Temp
°C
Dew
Point
Rel
Hum
%
Delta-T
°C
Wind Press
QNH
hPa
Press
MSL
hPa
Rain
since 9 am
mm
Dir
 
Spd
km/h
Gust
km/h
Spd
kts
Gust
kts
14/11:30pm 18.4 14.2 8.4 52 5.3 SE 20 28 11 15 1022.0 - 0.0
14/11:00pm 18.9 14.8 8.6 51 5.5 SE 20 26 11 14 1021.9 - 0.0
14/10:30pm 19.3 15.3 8.9 51 5.6 SE 20 30 11 16 1022.0 - 0.0
14/10:00pm 19.9 15.5 8.9 49 5.9 SE 22 30 12 16 1022.1 - 0.0
14/09:30pm 20.3 16.0 9.2 49 6.0 SE 22 30 12 16 1022.0 - 0.0
14/09:00pm 20.7 16.3 9.0 47 6.3 SE 22 35 12 19 1021.8 1019.6 0.0
14/08:30pm 21.1 17.1 9.0 46 6.6 SE 20 28 11 15 1021.8 - 0.0
14/08:00pm 21.7 17.7 8.9 44 6.9 SE 20 28 11 15 1021.6 - 0.0
14/07:30pm 22.2 18.1 8.7 42 7.3 SE 20 30 11 16 1021.5 - 0.0
14/07:00pm 22.5 18.4 8.6 41 7.5 SE 20 30 11 16 1021.0 - 0.0
14/06:30pm 23.0 18.8 8.3 39 8.0 SE 20 28 11 15 1020.7 - 0.0
14/06:00pm 23.6 19.4 8.1 37 8.4 SSE 20 28 11 15 1020.4 1018.3 0.0
14/05:30pm 24.1 19.9 8.1 36 8.7 SSE 20 26 11 14 1020.0 - 0.0
14/05:00pm 25.0 20.8 8.1 34 9.2 SSE 20 30 11 16 1019.7 - 0.0
14/04:30pm 25.6 20.8 7.2 31 9.9 SSE 22 30 12 16 1019.4 - 0.0
14/04:00pm 26.2 21.4 7.3 30 10.2 SE 22 32 12 17 1019.2 - 0.0
14/03:30pm 26.2 21.3 6.8 29 10.4 SSE 22 33 12 18 1019.0 - 0.0
14/03:00pm 26.8 22.5 7.8 30 10.4 SE 20 32 11 17 1018.9 1016.8 0.0
14/02:30pm 26.4 22.0 7.4 30 10.3 SSE 20 35 11 19 1019.2 - 0.0
14/02:00pm 26.7 22.6 7.7 30 10.4 S 19 26 10 14 1019.3 - 0.0
14/01:30pm 25.7 20.5 7.3 31 9.9 SE 24 35 13 19 1019.4 - 0.0
14/01:00pm 25.9 22.2 8.0 32 9.8 SE 17 28 9 15 1019.7 - 0.0
14/12:30pm 25.5 22.3 8.5 34 9.4 SE 15 28 8 15 1020.0 - 0.0
14/12:00pm 24.9 21.4 8.8 36 8.9 S 17 30 9 16 1020.4 1018.3 0.0
14/11:30am 24.2 21.1 9.0 38 8.4 SE 15 33 8 18 1020.8 - 0.0
14/11:00am 23.9 19.9 9.1 39 8.2 E 20 30 11 16 1021.2 - 0.0
14/10:30am 23.5 19.1 9.1 40 7.9 E 22 32 12 17 1021.6 - 0.0
14/10:00am 23.5 19.6 9.5 41 7.8 ESE 20 28 11 15 1021.9 - 0.0
14/09:30am 22.2 17.9 9.4 44 7.0 E 22 33 12 18 1022.0 - 0.0
14/09:00am 21.3 16.8 10.2 49 6.1 ESE 24 33 13 18 1021.9 1019.7 0.0
14/08:30am 20.3 15.8 10.1 52 5.6 ESE 24 32 13 17 1022.0 - 0.0
14/08:00am 19.2 14.4 10.2 56 4.9 ESE 26 35 14 19 1022.1 - 0.0
14/07:30am 18.0 13.2 10.4 61 4.2 ESE 26 35 14 19 1021.9 - 0.0
14/07:00am 17.1 13.1 10.5 65 3.6 ESE 22 30 12 16 1021.6 - 0.0
14/06:30am 16.3 12.7 10.4 68 3.2 ESE 20 30 11 16 1021.2 - 0.0
14/06:00am 15.6 11.6 10.4 71 2.8 ESE 22 33 12 18 1020.8 1018.7 0.0
14/05:30am 15.9 11.4 10.2 69 3.1 ESE 24 32 13 17 1020.7 - 0.0
14/05:00am 16.2 12.2 10.3 68 3.2 SE 22 32 12 17 1020.5 - 0.0
14/04:30am 16.4 12.7 10.3 67 3.3 SE 20 30 11 16 1020.3 - 0.0
14/04:00am 16.8 13.1 10.2 65 3.6 SE 20 30 11 16 1020.1 - 0.0
14/03:30am 17.0 13.5 10.1 64 3.7 SE 19 24 10 13 1020.0 - 0.0
14/03:00am 17.1 13.9 10.0 63 3.8 SE 17 22 9 12 1020.1 1018.0 0.0
14/02:30am 17.5 14.3 9.9 61 4.1 SE 17 24 9 13 1020.3 - 0.0
14/02:00am 17.8 14.6 9.9 60 4.3 SE 17 24 9 13 1020.2 - 0.0
14/01:30am 18.1 14.5 9.7 58 4.5 SE 19 26 10 14 1020.3 - 0.0
14/01:00am 18.5 15.2 9.6 56 4.8 SE 17 24 9 13 1020.3 - 0.0
14/12:30am 18.6 15.6 9.4 55 5.0 SE 15 19 8 10 1020.2 - 0.0
14/12:00am 19.0 15.6 9.2 53 5.3 SE 17 22 9 12 1020.2 1018.1 0.0
 
Date/Time
WST
Temp
°C
App
Temp
°C
Dew
Point
Rel
Hum
%
Delta-T
°C
Wind Press
QNH
hPa
Press
MSL
hPa
Rain
since 9 am
mm
Dir
 
Spd
km/h
Gust
km/h
Spd
kts
Gust
kts
13/11:30pm 19.2 15.9 9.4 53 5.3 SSE 17 20 9 11 1020.5 - 0.0
13/11:00pm 19.5 16.9 9.4 52 5.5 SSE 13 17 7 9 1020.4 - 0.0
13/10:30pm 19.9 17.0 9.5 51 5.7 SE 15 20 8 11 1020.5 - 0.0
13/10:00pm 20.1 17.5 9.4 50 5.8 SSE 13 17 7 9 1020.6 - 0.0
13/09:30pm 20.5 17.8 9.1 48 6.2 SSE 13 19 7 10 1020.4 - 0.0
13/09:00pm 20.5 18.3 9.4 49 6.0 S 11 15 6 8 1020.4 1018.3 0.0
13/08:30pm 22.2 19.1 9.0 43 7.2 SSE 15 20 8 11 1020.2 - 0.0
13/08:00pm 22.8 18.9 8.5 40 7.8 SE 19 22 10 12 1020.1 - 0.0
13/07:30pm 23.2 19.3 8.5 39 8.0 SSE 19 28 10 15 1019.9 - 0.0
13/07:00pm 23.6 20.0 8.5 38 8.2 SSE 17 24 9 13 1019.6 - 0.0
13/06:30pm 24.2 20.9 8.2 36 8.7 SE 15 20 8 11 1019.0 - 0.0
13/06:00pm 24.9 21.6 8.0 34 9.2 SSE 15 22 8 12 1018.7 1016.6 0.0
13/05:30pm 25.6 21.8 7.7 32 9.7 SSE 17 26 9 14 1018.4 - 0.0
13/05:00pm 26.4 22.1 6.9 29 10.5 SE 19 24 10 13 1018.1 - 0.0
13/04:30pm 27.1 23.1 6.5 27 11.0 SE 17 24 9 13 1017.8 - 0.0
13/04:00pm 27.2 22.7 6.0 26 11.3 SE 19 28 10 15 1017.7 - 0.0
13/03:30pm 27.3 23.4 7.2 28 10.9 SE 17 26 9 14 1017.8 - 0.0

Other Formats:

Comma delimited format used in spreadsheet applications
http://www.bom.gov.au/fwo/IDW60801/IDW60801.94457.axf

JavaScript Object Notation format (JSON) in row-major order
http://www.bom.gov.au/fwo/IDW60801/IDW60801.94457.json